Scf Baltica — A8IA5 — position and weather

sailwx.info

Track history (hours):
 
Tides and Currents Weather Stations Pressure Air Temp Water Temp Dewpoint Dewpoint Depression Visibility Wind Speed Wind Dir Waves Ship Positions

Scf Baltica

Last reported at 2019-May-23 19:00 UTC. Time now 2019-May-23 19:12 UTC.
Position N 55°53' E 017°07'.

Length 250 m; draft 14.3 m.

Type: Ship. MMSI: 636012813.

Date/timePositionNaut miles runAvg speedWind from/ knotsBaromVisibWave heightAir tempDewpointWater temp
2019-May-23 19:00N 55°53' E 017°07'1412.4
2019-May-23 17:51N 55°57' E 017°32'18712.1
2019-May-23 02:28N 58°30' E 020°50'912.3
2019-May-23 01:43N 58°38' E 020°59'612.5
2019-May-23 01:17N 58°42' E 021°05'2312.5
2019-May-22 23:28N 59°01' E 021°29'612.6
2019-May-22 23:00N 59°06' E 021°36'612.4
2019-May-22 22:30N 59°11' E 021°43'612.6
2019-May-22 22:00N 59°15' E 021°53'612.5
2019-May-22 21:30N 59°19' E 022°03'612.6
2019-May-22 21:00N 59°22' E 022°13'612.7
2019-May-22 20:30N 59°26' E 022°22'612.6
2019-May-22 20:00N 59°30' E 022°32'612.4
2019-May-22 19:30N 59°32' E 022°44'612.3
2019-May-22 19:00N 59°34' E 022°56'612.4
2019-May-22 18:30N 59°36' E 023°07'612.5
2019-May-22 18:00N 59°37' E 023°19'612.5
2019-May-22 17:30N 59°39' E 023°31'612.4
2019-May-22 17:00N 59°41' E 023°43'612.3
2019-May-22 16:30N 59°42' E 023°55'612.3
2019-May-22 16:00N 59°44' E 024°06'612.7
2019-May-22 15:30N 59°46' E 024°18'612.6
2019-May-22 15:00N 59°47' E 024°31'612.4
2019-May-22 14:30N 59°49' E 024°43'612.3
2019-May-22 14:00N 59°50' E 024°55'612.3
2019-May-22 13:30N 59°51' E 025°07'612.5
2019-May-22 13:00N 59°52' E 025°19'612.6
2019-May-22 12:30N 59°54' E 025°31'712.4
2019-May-22 11:57N 59°55' E 025°45'612.5
2019-May-22 11:30N 59°56' E 025°55'612.5
2019-May-22 10:59N 59°58' E 026°08'612.5
2019-May-22 10:30N 59°60' E 026°19'612.4
2019-May-22 10:00N 60°01' E 026°31'612.5
2019-May-22 09:30N 60°01' E 026°44'612.6
2019-May-22 09:00N 59°60' E 026°56'611.9
2019-May-22 08:30N 60°01' E 027°08'612.7
2019-May-22 08:00N 60°04' E 027°19'612.7
2019-May-22 07:30N 60°07' E 027°30'612.6
2019-May-22 07:00N 60°11' E 027°41'611.7
2019-May-22 06:30N 60°11' E 027°52'612.6
2019-May-22 06:00N 60°10' E 028°05'612.3
2019-May-22 05:30N 60°08' E 028°17'612.5
2019-May-22 05:00N 60°05' E 028°27'611.2
2019-May-22 04:30N 60°02' E 028°36'510.5
2019-May-22 04:00N 59°56' E 028°34'4 8.7
2019-May-22 03:30N 59°53' E 028°30'510.9
2019-May-22 03:00N 59°48' E 028°25'4 8.4
2019-May-22 02:30N 59°43' E 028°25'1 2.3
2019-May-22 02:00N 59°42' E 028°26'0 0.0
2019-May-22 01:29N 59°42' E 028°26'0 0.0
2019-May-22 00:59N 59°42' E 028°26'0 0.0
2019-May-22 00:29N 59°42' E 028°26'0 0.0
2019-May-21 23:50N 59°42' E 028°26'0 0.0
2019-May-21 23:20N 59°42' E 028°26'0 0.0
2019-May-21 22:50N 59°42' E 028°26'0 0.0
2019-May-21 22:20N 59°42' E 028°26'0 0.0
2019-May-21 21:53N 59°42' E 028°26'0 0.0
2019-May-21 21:23N 59°42' E 028°26'0 0.0
2019-May-21 20:53N 59°42' E 028°26'0 0.0
2019-May-21 20:23N 59°42' E 028°26'0 0.0
2019-May-21 19:53N 59°42' E 028°26'0 0.0
2019-May-21 19:20N 59°42' E 028°26'0 0.0
2019-May-21 18:56N 59°42' E 028°26'0 0.0
2019-May-21 18:26N 59°42' E 028°26'0 0.0
2019-May-21 17:56N 59°42' E 028°26'0 0.0
2019-May-21 17:26N 59°42' E 028°26'0 0.0
2019-May-21 16:59N 59°42' E 028°26'0 0.0
2019-May-21 16:29N 59°42' E 028°26'0 0.0
2019-May-21 15:59N 59°42' E 028°26'0 0.0
2019-May-21 15:29N 59°42' E 028°26'0 0.0
2019-May-21 14:59N 59°42' E 028°26'0 0.0
2019-May-21 14:29N 59°42' E 028°26'0 0.0
2019-May-21 13:59N 59°42' E 028°26'0 0.0
2019-May-21 13:29N 59°42' E 028°26'0 0.0
2019-May-21 12:59N 59°42' E 028°26'0 0.0
2019-May-21 12:29N 59°42' E 028°26'0 0.0
2019-May-21 11:59N 59°42' E 028°26'0 0.0
2019-May-21 11:29N 59°42' E 028°26'0 0.0
2019-May-21 10:59N 59°42' E 028°26'0 0.0
2019-May-21 10:29N 59°42' E 028°26'0 0.0
2019-May-21 09:59N 59°42' E 028°26'0 0.0
2019-May-21 09:20N 59°42' E 028°26'0 0.0
2019-May-21 08:50N 59°42' E 028°26'0 0.0
2019-May-21 08:20N 59°42' E 028°26'0 0.0
2019-May-21 07:53N 59°42' E 028°26'0 0.0
2019-May-21 07:23N 59°42' E 028°26'0 0.0
2019-May-21 06:53N 59°42' E 028°26'0 0.0
2019-May-21 06:23N 59°42' E 028°26'0 0.0
2019-May-21 05:53N 59°42' E 028°26'0 0.0
2019-May-21 05:26N 59°42' E 028°26'0 0.0
2019-May-21 04:56N 59°42' E 028°26'0 0.0
2019-May-21 04:26N 59°42' E 028°26'0 0.0
2019-May-21 03:56N 59°42' E 028°26'0 0.0
2019-May-21 03:26N 59°42' E 028°26'0 0.0
2019-May-21 02:56N 59°42' E 028°26'0 0.0
2019-May-21 02:29N 59°42' E 028°26'0 0.0
2019-May-21 01:59N 59°42' E 028°26'0 0.0
2019-May-21 01:26N 59°42' E 028°26'0 0.0
2019-May-21 00:59N 59°42' E 028°26'0 0.0
2019-May-21 00:29N 59°42' E 028°26'0 0.0
2019-May-20 23:56N 59°42' E 028°26'0 0.0
2019-May-20 23:29N 59°42' E 028°26'0 0.0
2019-May-20 22:59N 59°42' E 028°26'0 0.0
2019-May-20 22:29N 59°42' E 028°26'0 0.0
2019-May-20 21:59N 59°42' E 028°26'0 0.0
2019-May-20 21:29N 59°42' E 028°26'0 0.0
2019-May-20 20:59N 59°42' E 028°26'0 0.0
2019-May-20 20:29N 59°42' E 028°26'0 0.0
2019-May-20 19:59N 59°42' E 028°26'0 0.0
2019-May-20 19:20N 59°42' E 028°26'0 0.0
2019-May-20 18:50N 59°42' E 028°26'0 0.0
2019-May-20 18:23N 59°42' E 028°26'0 0.0
2019-May-20 18:00N 59°42' E 028°26'1 1.5
2019-May-20 17:30N 59°42' E 028°25'1 2.0
2019-May-20 17:00N 59°42' E 028°24'3 5.2
2019-May-20 16:30N 59°45' E 028°24'4 7.9
2019-May-20 16:00N 59°49' E 028°25'510.0
2019-May-20 15:30N 59°53' E 028°30'3 5.7
2019-May-20 15:00N 59°54' E 028°35'1 2.3
2019-May-20 14:29N 59°54' E 028°37'0 0.0
2019-May-20 14:00N 59°54' E 028°37'0 0.0
2019-May-20 13:30N 59°54' E 028°37'0 0.0
2019-May-20 13:00N 59°54' E 028°37'0 0.0
2019-May-20 12:30N 59°54' E 028°37'0 0.0
2019-May-20 12:00N 59°54' E 028°37'0 0.0
2019-May-20 11:30N 59°54' E 028°37'0 0.0
2019-May-20 11:00N 59°54' E 028°37'0 0.1
2019-May-20 10:30N 59°54' E 028°37'0 0.1
2019-May-20 09:57N 59°54' E 028°37'0 0.0
2019-May-20 09:30N 59°54' E 028°37'0 0.0
2019-May-20 09:00N 59°54' E 028°37'0 0.0
2019-May-20 08:30N 59°54' E 028°37'0 0.0
2019-May-20 08:00N 59°54' E 028°37'0 0.0
2019-May-20 07:30N 59°54' E 028°37'0 0.0
2019-May-20 07:00N 59°54' E 028°37'0 0.0
2019-May-20 06:30N 59°54' E 028°37'0 0.0
2019-May-20 05:54N 59°54' E 028°37'0 0.0
2019-May-20 05:30N 59°54' E 028°37'0 0.0
2019-May-20 04:54N 59°54' E 028°37'0 0.0
2019-May-20 04:30N 59°54' E 028°37'0 0.0
2019-May-20 04:00N 59°54' E 028°37'0 0.0
2019-May-20 03:30N 59°54' E 028°37'0 0.0
2019-May-20 02:54N 59°54' E 028°37'0 0.0
2019-May-20 02:30N 59°54' E 028°37'0 0.0
2019-May-20 01:57N 59°54' E 028°37'0 0.0
2019-May-20 01:30N 59°54' E 028°37'0 0.0
2019-May-20 00:57N 59°54' E 028°37'0 0.0
2019-May-20 00:27N 59°54' E 028°37'0 0.0
2019-May-20 00:00N 59°54' E 028°37'0 0.0
2019-May-19 23:30N 59°54' E 028°37'0 0.0
2019-May-19 23:00N 59°54' E 028°37'0 0.0
2019-May-19 22:30N 59°54' E 028°37'0 0.0
2019-May-19 21:57N 59°54' E 028°37'0 0.0
2019-May-19 21:30N 59°54' E 028°37'0 0.0
2019-May-19 21:00N 59°54' E 028°37'0 0.0
2019-May-19 20:30N 59°54' E 028°37'0 0.0
2019-May-19 20:00N 59°54' E 028°37'0 0.0
2019-May-19 19:30N 59°54' E 028°37'0 0.0
2019-May-19 19:00N 59°54' E 028°37'0 0.0
2019-May-19 18:30N 59°54' E 028°37'0 0.0
2019-May-19 18:00N 59°54' E 028°37'0 0.0
2019-May-19 17:30N 59°54' E 028°37'0 0.0
2019-May-19 16:57N 59°54' E 028°37'0 0.0
2019-May-19 16:21N 59°54' E 028°37'0 0.0
2019-May-19 15:48N 59°54' E 028°37'0 0.0
2019-May-19 15:24N 59°54' E 028°37'0 0.0
2019-May-19 14:54N 59°54' E 028°37'0 0.0
2019-May-19 14:24N 59°54' E 028°37'0 0.0
2019-May-19 14:00N 59°54' E 028°37'0 0.0
2019-May-19 13:24N 59°54' E 028°37'0 0.0
2019-May-19 12:54N 59°54' E 028°37'0 0.0
2019-May-19 12:27N 59°54' E 028°37'0 0.0
2019-May-19 11:57N 59°54' E 028°37'0 0.0
2019-May-19 11:27N 59°54' E 028°37'0 0.0
2019-May-19 10:57N 59°54' E 028°37'0 0.0
2019-May-19 10:27N 59°54' E 028°37'0 0.0
2019-May-19 09:57N 59°54' E 028°37'0 0.0
2019-May-19 09:30N 59°54' E 028°37'0 0.0
2019-May-19 09:00N 59°54' E 028°37'0 0.0
2019-May-19 08:30N 59°54' E 028°37'0 0.0
2019-May-19 08:00N 59°54' E 028°37'0 0.0
2019-May-19 07:30N 59°54' E 028°37'0 0.0
2019-May-19 07:00N 59°54' E 028°37'0 0.0
2019-May-19 06:30N 59°54' E 028°37'0 0.0
2019-May-19 05:57N 59°54' E 028°37'0 0.0
2019-May-19 05:30N 59°54' E 028°37'0 0.0
2019-May-19 05:00N 59°54' E 028°37'0 0.0
2019-May-19 04:27N 59°54' E 028°37'0 0.0
2019-May-19 04:00N 59°54' E 028°37'0 0.1
2019-May-19 03:30N 59°54' E 028°37'0 0.1
2019-May-19 03:00N 59°54' E 028°37'0 0.0
2019-May-19 02:21N 59°54' E 028°37'0 0.1
2019-May-19 01:57N 59°54' E 028°37'0 0.1
2019-May-19 01:27N 59°54' E 028°38'0 0.0
2019-May-19 00:54N 59°54' E 028°38'0 0.0
2019-May-19 00:24N 59°54' E 028°38'0 0.0
2019-May-18 23:54N 59°54' E 028°38'0 0.0
2019-May-18 23:27N 59°54' E 028°38'0 0.0
2019-May-18 23:00N 59°54' E 028°38'0 0.1
2019-May-18 22:27N 59°54' E 028°37'0 0.0
2019-May-18 22:00N 59°54' E 028°37'0 0.0
2019-May-18 21:24N 59°54' E 028°37'0 0.0
2019-May-18 21:00N 59°54' E 028°37'0 0.0
2019-May-18 20:30N 59°54' E 028°37'0 0.1
2019-May-18 20:00N 59°54' E 028°37'0 0.0
2019-May-18 19:30N 59°54' E 028°37'0 0.1
2019-May-18 19:00N 59°54' E 028°37'0 0.2
2019-May-18 18:30N 59°54' E 028°38'0 0.1
2019-May-18 18:00N 59°54' E 028°38'0 0.0
2019-May-18 17:30N 59°54' E 028°38'0 0.0
2019-May-18 17:00N 59°54' E 028°38'0 0.0
2019-May-18 16:27N 59°54' E 028°38'0 0.0
2019-May-18 16:00N 59°54' E 028°38'0 0.0
2019-May-18 15:30N 59°54' E 028°38'0 0.0
2019-May-18 15:00N 59°54' E 028°38'0 0.0
2019-May-18 14:30N 59°54' E 028°38'0 0.0
2019-May-18 14:00N 59°54' E 028°38'0 0.1
2019-May-18 13:30N 59°54' E 028°38'0 0.0
2019-May-18 13:00N 59°54' E 028°38'0 0.0
2019-May-18 12:21N 59°54' E 028°38'0 0.0
2019-May-18 12:00N 59°54' E 028°38'0 0.0
2019-May-18 11:30N 59°54' E 028°38'0 0.0
2019-May-18 11:00N 59°54' E 028°38'0 0.0
2019-May-18 10:24N 59°54' E 028°38'0 0.0
2019-May-18 10:00N 59°54' E 028°38'0 0.0
2019-May-18 09:24N 59°54' E 028°38'0 0.0
2019-May-18 08:57N 59°54' E 028°38'0 0.0
2019-May-18 08:30N 59°54' E 028°38'0 0.1
2019-May-18 07:57N 59°54' E 028°37'0 0.0
2019-May-18 07:27N 59°54' E 028°37'0 0.0
2019-May-18 07:00N 59°54' E 028°37'0 0.0
2019-May-18 06:27N 59°54' E 028°37'0 0.0
2019-May-18 05:57N 59°54' E 028°37'0 0.0
2019-May-18 05:30N 59°54' E 028°37'0 0.0
2019-May-18 05:00N 59°54' E 028°37'0 0.0
2019-May-18 04:30N 59°54' E 028°37'0 0.0
2019-May-18 04:00N 59°54' E 028°37'0 0.0
2019-May-18 03:30N 59°54' E 028°37'0 0.0
2019-May-18 03:00N 59°54' E 028°37'0 0.0
2019-May-18 02:30N 59°54' E 028°37'0 0.0
2019-May-18 02:00N 59°54' E 028°37'0 0.0
2019-May-18 01:30N 59°54' E 028°37'0 0.1
2019-May-18 01:00N 59°54' E 028°37'0 0.0
2019-May-18 00:30N 59°54' E 028°37'0 0.0
2019-May-18 00:00N 59°54' E 028°37'0 0.0
2019-May-17 23:30N 59°54' E 028°37'0 0.0
2019-May-17 23:00N 59°54' E 028°37'0 0.1
2019-May-17 22:30N 59°54' E 028°38'0 0.1
2019-May-17 21:57N 59°54' E 028°38'0 0.0
2019-May-17 21:21N 59°54' E 028°38'0 0.0
2019-May-17 20:54N 59°54' E 028°38'0 0.0
2019-May-17 20:30N 59°54' E 028°38'0 0.0
2019-May-17 19:54N 59°54' E 028°38'0 0.0
2019-May-17 19:30N 59°54' E 028°38'0 0.1
2019-May-17 18:57N 59°54' E 028°38'0 0.2
2019-May-17 18:27N 59°54' E 028°38'0 0.1
2019-May-17 18:00N 59°54' E 028°38'0 0.0
2019-May-17 17:30N 59°54' E 028°38'0 0.0
2019-May-17 17:00N 59°54' E 028°38'0 0.0
2019-May-17 16:30N 59°54' E 028°38'0 0.0
2019-May-17 16:00N 59°54' E 028°38'0 0.0
2019-May-17 15:30N 59°54' E 028°38'0 0.0
2019-May-17 15:00N 59°54' E 028°38'0 0.1
2019-May-17 14:30N 59°54' E 028°38'0 0.0
2019-May-17 14:00N 59°54' E 028°38'0 0.0
2019-May-17 13:30N 59°54' E 028°38'0 0.0
2019-May-17 13:00N 59°54' E 028°38'0 0.0
2019-May-17 12:30N 59°54' E 028°38'0 0.0
2019-May-17 12:00N 59°54' E 028°37'0 0.1
2019-May-17 11:30N 59°54' E 028°37'0 0.0
2019-May-17 11:00N 59°54' E 028°37'0 0.1
2019-May-17 10:30N 59°54' E 028°38'0 0.0
2019-May-17 10:00N 59°54' E 028°38'0 0.0
2019-May-17 09:30N 59°54' E 028°38'0 0.0
2019-May-17 08:57N 59°54' E 028°38'0 0.0
2019-May-17 08:27N 59°54' E 028°38'0 0.0
2019-May-17 07:57N 59°54' E 028°38'0 0.0
2019-May-17 07:21N 59°54' E 028°38'0 0.0
2019-May-17 07:00N 59°54' E 028°38'0 0.0
2019-May-17 06:30N 59°54' E 028°38'0 0.0
2019-May-17 05:54N 59°54' E 028°38'0 0.0
2019-May-17 05:24N 59°54' E 028°38'0 0.0
2019-May-17 05:00N 59°54' E 028°38'0 0.0
2019-May-17 04:27N 59°54' E 028°38'0 0.0
2019-May-17 03:57N 59°54' E 028°38'0 0.0
2019-May-17 03:27N 59°54' E 028°38'0 0.0
2019-May-17 02:57N 59°54' E 028°38'0 0.0
2019-May-17 02:24N 59°54' E 028°38'0 0.1
2019-May-17 01:57N 59°54' E 028°38'0 0.7
2019-May-17 01:31N 59°54' E 028°37'2 3.6
2019-May-17 01:00N 59°56' E 028°35'2 5.0
2019-May-17 00:31N 59°58' E 028°35'4 7.8
2019-May-17 00:00N 60°02' E 028°33'5 9.5
2019-May-16 23:30N 60°03' E 028°24'5 9.6
2019-May-16 23:00N 60°07' E 028°17'5 9.4
2019-May-16 22:30N 60°08' E 028°08'5 9.9
2019-May-16 22:00N 60°09' E 027°58'5 9.7
2019-May-16 21:30N 60°11' E 027°49'5 9.2
2019-May-16 21:01N 60°09' E 027°40'5 9.7
2019-May-16 20:30N 60°06' E 027°32'5 9.6
2019-May-16 20:01N 60°04' E 027°24'5 9.3
2019-May-16 19:30N 60°02' E 027°15'5 9.5
2019-May-16 19:00N 59°59' E 027°07'5 9.1
2019-May-16 18:30N 59°58' E 026°58'5 9.9
2019-May-16 18:00N 59°59' E 026°48'5 9.5
2019-May-16 17:30N 59°60' E 026°39'5 9.8
2019-May-16 17:00N 59°58' E 026°30'5 9.8
2019-May-16 16:30N 59°57' E 026°20'22 9.6
2019-May-16 14:16N 59°51' E 025°38'9 9.5
2019-May-16 13:21N 59°49' E 025°22'4 9.5
2019-May-16 12:57N 59°49' E 025°14'4 9.6
2019-May-16 12:30N 59°48' E 025°06'612.4
2019-May-16 12:00N 59°46' E 024°54'713.8
2019-May-16 11:31N 59°45' E 024°41'612.2
2019-May-16 11:00N 59°44' E 024°29'5 9.7
2019-May-16 10:30N 59°42' E 024°19'5 9.6
2019-May-16 10:00N 59°40' E 024°10'6 9.7
2019-May-16 09:25N 59°39' E 023°60'410.0
2019-May-16 09:00N 59°38' E 023°52'5 9.8
2019-May-16 08:30N 59°36' E 023°43'5 9.8
2019-May-16 08:00N 59°35' E 023°33'5 9.9
2019-May-16 07:30N 59°33' E 023°24'5 9.8
2019-May-16 07:00N 59°32' E 023°15'5 9.8
2019-May-16 06:30N 59°30' E 023°06'5 9.9
2019-May-16 06:00N 59°28' E 022°57'5 9.7
2019-May-16 05:30N 59°27' E 022°48'5 9.8
2019-May-16 05:00N 59°25' E 022°39'5 9.9
2019-May-16 04:30N 59°22' E 022°31'5 9.8
2019-May-16 04:00N 59°19' E 022°23'7 9.5
2019-May-16 03:18N 59°15' E 022°13'3 9.6
2019-May-16 03:00N 59°13' E 022°09'11 9.4
2019-May-16 01:51N 59°07' E 021°52'155 8.9
2019-May-15 08:32N 56°38' E 020°30'0 8.5
2019-May-15 08:29N 56°38' E 020°30'5 8.5
2019-May-15 07:57N 56°33' E 020°29'  
Track history (hours):
 
Tides and Currents Weather Stations Pressure Air Temp Water Temp Dewpoint Dewpoint Depression Visibility Wind Speed Wind Dir Waves Ship Positions

Scf Baltica

Last reported at 2019-May-23 19:00 UTC. Time now 2019-May-23 19:13 UTC.
Position N 55°53' E 017°07'.

Length 250 m; draft 14.3 m.

Type: Ship. MMSI: 636012813.

Date/timePositionNaut miles runAvg speedWind from/ knotsBaromVisibWave heightAir tempDewpointWater temp
2019-May-23 19:00N 55°53' E 017°07'1412.4
2019-May-23 17:51N 55°57' E 017°32'18712.1
2019-May-23 02:28N 58°30' E 020°50'912.3
2019-May-23 01:43N 58°38' E 020°59'612.5
2019-May-23 01:17N 58°42' E 021°05'2312.5
2019-May-22 23:28N 59°01' E 021°29'612.6
2019-May-22 23:00N 59°06' E 021°36'612.4
2019-May-22 22:30N 59°11' E 021°43'612.6
2019-May-22 22:00N 59°15' E 021°53'612.5
2019-May-22 21:30N 59°19' E 022°03'612.6
2019-May-22 21:00N 59°22' E 022°13'612.7
2019-May-22 20:30N 59°26' E 022°22'612.6
2019-May-22 20:00N 59°30' E 022°32'612.4
2019-May-22 19:30N 59°32' E 022°44'612.3
2019-May-22 19:00N 59°34' E 022°56'612.4
2019-May-22 18:30N 59°36' E 023°07'612.5
2019-May-22 18:00N 59°37' E 023°19'612.5
2019-May-22 17:30N 59°39' E 023°31'612.4
2019-May-22 17:00N 59°41' E 023°43'612.3
2019-May-22 16:30N 59°42' E 023°55'612.3
2019-May-22 16:00N 59°44' E 024°06'612.7
2019-May-22 15:30N 59°46' E 024°18'612.6
2019-May-22 15:00N 59°47' E 024°31'612.4
2019-May-22 14:30N 59°49' E 024°43'612.3
2019-May-22 14:00N 59°50' E 024°55'612.3
2019-May-22 13:30N 59°51' E 025°07'612.5
2019-May-22 13:00N 59°52' E 025°19'612.6
2019-May-22 12:30N 59°54' E 025°31'712.4
2019-May-22 11:57N 59°55' E 025°45'612.5
2019-May-22 11:30N 59°56' E 025°55'612.5
2019-May-22 10:59N 59°58' E 026°08'612.5
2019-May-22 10:30N 59°60' E 026°19'612.4
2019-May-22 10:00N 60°01' E 026°31'612.5
2019-May-22 09:30N 60°01' E 026°44'612.6
2019-May-22 09:00N 59°60' E 026°56'611.9
2019-May-22 08:30N 60°01' E 027°08'612.7
2019-May-22 08:00N 60°04' E 027°19'612.7
2019-May-22 07:30N 60°07' E 027°30'612.6
2019-May-22 07:00N 60°11' E 027°41'611.7
2019-May-22 06:30N 60°11' E 027°52'612.6
2019-May-22 06:00N 60°10' E 028°05'612.3
2019-May-22 05:30N 60°08' E 028°17'612.5
2019-May-22 05:00N 60°05' E 028°27'611.2
2019-May-22 04:30N 60°02' E 028°36'510.5
2019-May-22 04:00N 59°56' E 028°34'4 8.7
2019-May-22 03:30N 59°53' E 028°30'510.9
2019-May-22 03:00N 59°48' E 028°25'4 8.4
2019-May-22 02:30N 59°43' E 028°25'1 2.3
2019-May-22 02:00N 59°42' E 028°26'0 0.0
2019-May-22 01:29N 59°42' E 028°26'0 0.0
2019-May-22 00:59N 59°42' E 028°26'0 0.0
2019-May-22 00:29N 59°42' E 028°26'0 0.0
2019-May-21 23:50N 59°42' E 028°26'0 0.0
2019-May-21 23:20N 59°42' E 028°26'0 0.0
2019-May-21 22:50N 59°42' E 028°26'0 0.0
2019-May-21 22:20N 59°42' E 028°26'0 0.0
2019-May-21 21:53N 59°42' E 028°26'0 0.0
2019-May-21 21:23N 59°42' E 028°26'0 0.0
2019-May-21 20:53N 59°42' E 028°26'0 0.0
2019-May-21 20:23N 59°42' E 028°26'0 0.0
2019-May-21 19:53N 59°42' E 028°26'0 0.0
2019-May-21 19:20N 59°42' E 028°26'0 0.0
2019-May-21 18:56N 59°42' E 028°26'0 0.0
2019-May-21 18:26N 59°42' E 028°26'0 0.0
2019-May-21 17:56N 59°42' E 028°26'0 0.0
2019-May-21 17:26N 59°42' E 028°26'0 0.0
2019-May-21 16:59N 59°42' E 028°26'0 0.0
2019-May-21 16:29N 59°42' E 028°26'0 0.0
2019-May-21 15:59N 59°42' E 028°26'0 0.0
2019-May-21 15:29N 59°42' E 028°26'0 0.0
2019-May-21 14:59N 59°42' E 028°26'0 0.0
2019-May-21 14:29N 59°42' E 028°26'0 0.0
2019-May-21 13:59N 59°42' E 028°26'0 0.0
2019-May-21 13:29N 59°42' E 028°26'0 0.0
2019-May-21 12:59N 59°42' E 028°26'0 0.0
2019-May-21 12:29N 59°42' E 028°26'0 0.0
2019-May-21 11:59N 59°42' E 028°26'0 0.0
2019-May-21 11:29N 59°42' E 028°26'0 0.0
2019-May-21 10:59N 59°42' E 028°26'0 0.0
2019-May-21 10:29N 59°42' E 028°26'0 0.0
2019-May-21 09:59N 59°42' E 028°26'0 0.0
2019-May-21 09:20N 59°42' E 028°26'0 0.0
2019-May-21 08:50N 59°42' E 028°26'0 0.0
2019-May-21 08:20N 59°42' E 028°26'0 0.0
2019-May-21 07:53N 59°42' E 028°26'0 0.0
2019-May-21 07:23N 59°42' E 028°26'0 0.0
2019-May-21 06:53N 59°42' E 028°26'0 0.0
2019-May-21 06:23N 59°42' E 028°26'0 0.0
2019-May-21 05:53N 59°42' E 028°26'0 0.0
2019-May-21 05:26N 59°42' E 028°26'0 0.0
2019-May-21 04:56N 59°42' E 028°26'0 0.0
2019-May-21 04:26N 59°42' E 028°26'0 0.0
2019-May-21 03:56N 59°42' E 028°26'0 0.0
2019-May-21 03:26N 59°42' E 028°26'0 0.0
2019-May-21 02:56N 59°42' E 028°26'0 0.0
2019-May-21 02:29N 59°42' E 028°26'0 0.0
2019-May-21 01:59N 59°42' E 028°26'0 0.0
2019-May-21 01:26N 59°42' E 028°26'0 0.0
2019-May-21 00:59N 59°42' E 028°26'0 0.0
2019-May-21 00:29N 59°42' E 028°26'0 0.0
2019-May-20 23:56N 59°42' E 028°26'0 0.0
2019-May-20 23:29N 59°42' E 028°26'0 0.0
2019-May-20 22:59N 59°42' E 028°26'0 0.0
2019-May-20 22:29N 59°42' E 028°26'0 0.0
2019-May-20 21:59N 59°42' E 028°26'0 0.0
2019-May-20 21:29N 59°42' E 028°26'0 0.0
2019-May-20 20:59N 59°42' E 028°26'0 0.0
2019-May-20 20:29N 59°42' E 028°26'0 0.0
2019-May-20 19:59N 59°42' E 028°26'0 0.0
2019-May-20 19:20N 59°42' E 028°26'0 0.0
2019-May-20 18:50N 59°42' E 028°26'0 0.0
2019-May-20 18:23N 59°42' E 028°26'0 0.0
2019-May-20 18:00N 59°42' E 028°26'1 1.5
2019-May-20 17:30N 59°42' E 028°25'1 2.0
2019-May-20 17:00N 59°42' E 028°24'3 5.2
2019-May-20 16:30N 59°45' E 028°24'4 7.9
2019-May-20 16:00N 59°49' E 028°25'510.0
2019-May-20 15:30N 59°53' E 028°30'3 5.7
2019-May-20 15:00N 59°54' E 028°35'1 2.3
2019-May-20 14:29N 59°54' E 028°37'0 0.0
2019-May-20 14:00N 59°54' E 028°37'0 0.0
2019-May-20 13:30N 59°54' E 028°37'0 0.0
2019-May-20 13:00N 59°54' E 028°37'0 0.0
2019-May-20 12:30N 59°54' E 028°37'0 0.0
2019-May-20 12:00N 59°54' E 028°37'0 0.0
2019-May-20 11:30N 59°54' E 028°37'0 0.0
2019-May-20 11:00N 59°54' E 028°37'0 0.1
2019-May-20 10:30N 59°54' E 028°37'0 0.1
2019-May-20 09:57N 59°54' E 028°37'0 0.0
2019-May-20 09:30N 59°54' E 028°37'0 0.0
2019-May-20 09:00N 59°54' E 028°37'0 0.0
2019-May-20 08:30N 59°54' E 028°37'0 0.0
2019-May-20 08:00N 59°54' E 028°37'0 0.0
2019-May-20 07:30N 59°54' E 028°37'0 0.0
2019-May-20 07:00N 59°54' E 028°37'0 0.0
2019-May-20 06:30N 59°54' E 028°37'0 0.0
2019-May-20 05:54N 59°54' E 028°37'0 0.0
2019-May-20 05:30N 59°54' E 028°37'0 0.0
2019-May-20 04:54N 59°54' E 028°37'0 0.0
2019-May-20 04:30N 59°54' E 028°37'0 0.0
2019-May-20 04:00N 59°54' E 028°37'0 0.0
2019-May-20 03:30N 59°54' E 028°37'0 0.0
2019-May-20 02:54N 59°54' E 028°37'0 0.0
2019-May-20 02:30N 59°54' E 028°37'0 0.0
2019-May-20 01:57N 59°54' E 028°37'0 0.0
2019-May-20 01:30N 59°54' E 028°37'0 0.0
2019-May-20 00:57N 59°54' E 028°37'0 0.0
2019-May-20 00:27N 59°54' E 028°37'0 0.0
2019-May-20 00:00N 59°54' E 028°37'0 0.0
2019-May-19 23:30N 59°54' E 028°37'0 0.0
2019-May-19 23:00N 59°54' E 028°37'0 0.0
2019-May-19 22:30N 59°54' E 028°37'0 0.0
2019-May-19 21:57N 59°54' E 028°37'0 0.0
2019-May-19 21:30N 59°54' E 028°37'0 0.0
2019-May-19 21:00N 59°54' E 028°37'0 0.0
2019-May-19 20:30N 59°54' E 028°37'0 0.0
2019-May-19 20:00N 59°54' E 028°37'0 0.0
2019-May-19 19:30N 59°54' E 028°37'0 0.0
2019-May-19 19:00N 59°54' E 028°37'0 0.0
2019-May-19 18:30N 59°54' E 028°37'0 0.0
2019-May-19 18:00N 59°54' E 028°37'0 0.0
2019-May-19 17:30N 59°54' E 028°37'0 0.0
2019-May-19 16:57N 59°54' E 028°37'0 0.0
2019-May-19 16:21N 59°54' E 028°37'0 0.0
2019-May-19 15:48N 59°54' E 028°37'0 0.0
2019-May-19 15:24N 59°54' E 028°37'0 0.0
2019-May-19 14:54N 59°54' E 028°37'0 0.0
2019-May-19 14:24N 59°54' E 028°37'0 0.0
2019-May-19 14:00N 59°54' E 028°37'0 0.0
2019-May-19 13:24N 59°54' E 028°37'0 0.0
2019-May-19 12:54N 59°54' E 028°37'0 0.0
2019-May-19 12:27N 59°54' E 028°37'0 0.0
2019-May-19 11:57N 59°54' E 028°37'0 0.0
2019-May-19 11:27N 59°54' E 028°37'0 0.0
2019-May-19 10:57N 59°54' E 028°37'0 0.0
2019-May-19 10:27N 59°54' E 028°37'0 0.0
2019-May-19 09:57N 59°54' E 028°37'0 0.0
2019-May-19 09:30N 59°54' E 028°37'0 0.0
2019-May-19 09:00N 59°54' E 028°37'0 0.0
2019-May-19 08:30N 59°54' E 028°37'0 0.0
2019-May-19 08:00N 59°54' E 028°37'0 0.0
2019-May-19 07:30N 59°54' E 028°37'0 0.0
2019-May-19 07:00N 59°54' E 028°37'0 0.0
2019-May-19 06:30N 59°54' E 028°37'0 0.0
2019-May-19 05:57N 59°54' E 028°37'0 0.0
2019-May-19 05:30N 59°54' E 028°37'0 0.0
2019-May-19 05:00N 59°54' E 028°37'0 0.0
2019-May-19 04:27N 59°54' E 028°37'0 0.0
2019-May-19 04:00N 59°54' E 028°37'0 0.1
2019-May-19 03:30N 59°54' E 028°37'0 0.1
2019-May-19 03:00N 59°54' E 028°37'0 0.0
2019-May-19 02:21N 59°54' E 028°37'0 0.1
2019-May-19 01:57N 59°54' E 028°37'0 0.1
2019-May-19 01:27N 59°54' E 028°38'0 0.0
2019-May-19 00:54N 59°54' E 028°38'0 0.0
2019-May-19 00:24N 59°54' E 028°38'0 0.0
2019-May-18 23:54N 59°54' E 028°38'0 0.0
2019-May-18 23:27N 59°54' E 028°38'0 0.0
2019-May-18 23:00N 59°54' E 028°38'0 0.1
2019-May-18 22:27N 59°54' E 028°37'0 0.0
2019-May-18 22:00N 59°54' E 028°37'0 0.0
2019-May-18 21:24N 59°54' E 028°37'0 0.0
2019-May-18 21:00N 59°54' E 028°37'0 0.0
2019-May-18 20:30N 59°54' E 028°37'0 0.1
2019-May-18 20:00N 59°54' E 028°37'0 0.0
2019-May-18 19:30N 59°54' E 028°37'0 0.1
2019-May-18 19:00N 59°54' E 028°37'0 0.2
2019-May-18 18:30N 59°54' E 028°38'0 0.1
2019-May-18 18:00N 59°54' E 028°38'0 0.0
2019-May-18 17:30N 59°54' E 028°38'0 0.0
2019-May-18 17:00N 59°54' E 028°38'0 0.0
2019-May-18 16:27N 59°54' E 028°38'0 0.0
2019-May-18 16:00N 59°54' E 028°38'0 0.0
2019-May-18 15:30N 59°54' E 028°38'0 0.0
2019-May-18 15:00N 59°54' E 028°38'0 0.0
2019-May-18 14:30N 59°54' E 028°38'0 0.0
2019-May-18 14:00N 59°54' E 028°38'0 0.1
2019-May-18 13:30N 59°54' E 028°38'0 0.0
2019-May-18 13:00N 59°54' E 028°38'0 0.0
2019-May-18 12:21N 59°54' E 028°38'0 0.0
2019-May-18 12:00N 59°54' E 028°38'0 0.0
2019-May-18 11:30N 59°54' E 028°38'0 0.0
2019-May-18 11:00N 59°54' E 028°38'0 0.0
2019-May-18 10:24N 59°54' E 028°38'0 0.0
2019-May-18 10:00N 59°54' E 028°38'0 0.0
2019-May-18 09:24N 59°54' E 028°38'0 0.0
2019-May-18 08:57N 59°54' E 028°38'0 0.0
2019-May-18 08:30N 59°54' E 028°38'0 0.1
2019-May-18 07:57N 59°54' E 028°37'0 0.0
2019-May-18 07:27N 59°54' E 028°37'0 0.0
2019-May-18 07:00N 59°54' E 028°37'0 0.0
2019-May-18 06:27N 59°54' E 028°37'0 0.0
2019-May-18 05:57N 59°54' E 028°37'0 0.0
2019-May-18 05:30N 59°54' E 028°37'0 0.0
2019-May-18 05:00N 59°54' E 028°37'0 0.0
2019-May-18 04:30N 59°54' E 028°37'0 0.0
2019-May-18 04:00N 59°54' E 028°37'0 0.0
2019-May-18 03:30N 59°54' E 028°37'0 0.0
2019-May-18 03:00N 59°54' E 028°37'0 0.0
2019-May-18 02:30N 59°54' E 028°37'0 0.0
2019-May-18 02:00N 59°54' E 028°37'0 0.0
2019-May-18 01:30N 59°54' E 028°37'0 0.1
2019-May-18 01:00N 59°54' E 028°37'0 0.0
2019-May-18 00:30N 59°54' E 028°37'0 0.0
2019-May-18 00:00N 59°54' E 028°37'0 0.0
2019-May-17 23:30N 59°54' E 028°37'0 0.0
2019-May-17 23:00N 59°54' E 028°37'0 0.1
2019-May-17 22:30N 59°54' E 028°38'0 0.1
2019-May-17 21:57N 59°54' E 028°38'0 0.0
2019-May-17 21:21N 59°54' E 028°38'0 0.0
2019-May-17 20:54N 59°54' E 028°38'0 0.0
2019-May-17 20:30N 59°54' E 028°38'0 0.0
2019-May-17 19:54N 59°54' E 028°38'0 0.0
2019-May-17 19:30N 59°54' E 028°38'0 0.1
2019-May-17 18:57N 59°54' E 028°38'0 0.2
2019-May-17 18:27N 59°54' E 028°38'0 0.1
2019-May-17 18:00N 59°54' E 028°38'0 0.0
2019-May-17 17:30N 59°54' E 028°38'0 0.0
2019-May-17 17:00N 59°54' E 028°38'0 0.0
2019-May-17 16:30N 59°54' E 028°38'0 0.0
2019-May-17 16:00N 59°54' E 028°38'0 0.0
2019-May-17 15:30N 59°54' E 028°38'0 0.0
2019-May-17 15:00N 59°54' E 028°38'0 0.1
2019-May-17 14:30N 59°54' E 028°38'0 0.0
2019-May-17 14:00N 59°54' E 028°38'0 0.0
2019-May-17 13:30N 59°54' E 028°38'0 0.0
2019-May-17 13:00N 59°54' E 028°38'0 0.0
2019-May-17 12:30N 59°54' E 028°38'0 0.0
2019-May-17 12:00N 59°54' E 028°37'0 0.1
2019-May-17 11:30N 59°54' E 028°37'0 0.0
2019-May-17 11:00N 59°54' E 028°37'0 0.1
2019-May-17 10:30N 59°54' E 028°38'0 0.0
2019-May-17 10:00N 59°54' E 028°38'0 0.0
2019-May-17 09:30N 59°54' E 028°38'0 0.0
2019-May-17 08:57N 59°54' E 028°38'0 0.0
2019-May-17 08:27N 59°54' E 028°38'0 0.0
2019-May-17 07:57N 59°54' E 028°38'0 0.0
2019-May-17 07:21N 59°54' E 028°38'0 0.0
2019-May-17 07:00N 59°54' E 028°38'0 0.0
2019-May-17 06:30N 59°54' E 028°38'0 0.0
2019-May-17 05:54N 59°54' E 028°38'0 0.0
2019-May-17 05:24N 59°54' E 028°38'0 0.0
2019-May-17 05:00N 59°54' E 028°38'0 0.0
2019-May-17 04:27N 59°54' E 028°38'0 0.0
2019-May-17 03:57N 59°54' E 028°38'0 0.0
2019-May-17 03:27N 59°54' E 028°38'0 0.0
2019-May-17 02:57N 59°54' E 028°38'0 0.0
2019-May-17 02:24N 59°54' E 028°38'0 0.1
2019-May-17 01:57N 59°54' E 028°38'0 0.7
2019-May-17 01:31N 59°54' E 028°37'2 3.6
2019-May-17 01:00N 59°56' E 028°35'2 5.0
2019-May-17 00:31N 59°58' E 028°35'4 7.8
2019-May-17 00:00N 60°02' E 028°33'5 9.5
2019-May-16 23:30N 60°03' E 028°24'5 9.6
2019-May-16 23:00N 60°07' E 028°17'5 9.4
2019-May-16 22:30N 60°08' E 028°08'5 9.9
2019-May-16 22:00N 60°09' E 027°58'5 9.7
2019-May-16 21:30N 60°11' E 027°49'5 9.2
2019-May-16 21:01N 60°09' E 027°40'5 9.7
2019-May-16 20:30N 60°06' E 027°32'5 9.6
2019-May-16 20:01N 60°04' E 027°24'5 9.3
2019-May-16 19:30N 60°02' E 027°15'5 9.5
2019-May-16 19:00N 59°59' E 027°07'5 9.1
2019-May-16 18:30N 59°58' E 026°58'5 9.9
2019-May-16 18:00N 59°59' E 026°48'5 9.5
2019-May-16 17:30N 59°60' E 026°39'5 9.8
2019-May-16 17:00N 59°58' E 026°30'5 9.8
2019-May-16 16:30N 59°57' E 026°20'22 9.6
2019-May-16 14:16N 59°51' E 025°38'9 9.5
2019-May-16 13:21N 59°49' E 025°22'4 9.5
2019-May-16 12:57N 59°49' E 025°14'4 9.6
2019-May-16 12:30N 59°48' E 025°06'612.4
2019-May-16 12:00N 59°46' E 024°54'713.8
2019-May-16 11:31N 59°45' E 024°41'612.2
2019-May-16 11:00N 59°44' E 024°29'5 9.7
2019-May-16 10:30N 59°42' E 024°19'5 9.6
2019-May-16 10:00N 59°40' E 024°10'6 9.7
2019-May-16 09:25N 59°39' E 023°60'410.0
2019-May-16 09:00N 59°38' E 023°52'5 9.8
2019-May-16 08:30N 59°36' E 023°43'5 9.8
2019-May-16 08:00N 59°35' E 023°33'5 9.9
2019-May-16 07:30N 59°33' E 023°24'5 9.8
2019-May-16 07:00N 59°32' E 023°15'5 9.8
2019-May-16 06:30N 59°30' E 023°06'5 9.9
2019-May-16 06:00N 59°28' E 022°57'5 9.7
2019-May-16 05:30N 59°27' E 022°48'5 9.8
2019-May-16 05:00N 59°25' E 022°39'5 9.9
2019-May-16 04:30N 59°22' E 022°31'5 9.8
2019-May-16 04:00N 59°19' E 022°23'7 9.5
2019-May-16 03:18N 59°15' E 022°13'3 9.6
2019-May-16 03:00N 59°13' E 022°09'11 9.4
2019-May-16 01:51N 59°07' E 021°52'155 8.9
2019-May-15 08:32N 56°38' E 020°30'0 8.5
2019-May-15 08:29N 56°38' E 020°30'5 8.5
2019-May-15 07:57N 56°33' E 020°29'  

Dump ship's entire track history